sensor_id;sensor_type;location;lat;lon;timestamp;P1;durP1;ratioP1;P2;durP2;ratioP2
32333;SDS011;18810;53.040;8.850;2024-03-17T00:01:37;0.30;;;0.30;;
32333;SDS011;18810;53.040;8.850;2024-03-17T00:04:03;0.30;;;0.30;;
32333;SDS011;18810;53.040;8.850;2024-03-17T00:06:32;0.40;;;0.40;;
32333;SDS011;18810;53.040;8.850;2024-03-17T00:08:58;0.40;;;0.40;;
32333;SDS011;18810;53.040;8.850;2024-03-17T00:11:26;0.30;;;0.30;;
32333;SDS011;18810;53.040;8.850;2024-03-17T00:13:51;0.30;;;0.30;;
32333;SDS011;18810;53.040;8.850;2024-03-17T00:16:17;0.40;;;0.40;;
32333;SDS011;18810;53.040;8.850;2024-03-17T00:18:44;0.40;;;0.40;;
32333;SDS011;18810;53.040;8.850;2024-03-17T00:21:11;0.30;;;0.30;;
32333;SDS011;18810;53.040;8.850;2024-03-17T00:23:38;0.40;;;0.40;;
32333;SDS011;18810;53.040;8.850;2024-03-17T00:26:04;0.40;;;0.40;;
32333;SDS011;18810;53.040;8.850;2024-03-17T00:28:30;0.30;;;0.30;;
32333;SDS011;18810;53.040;8.850;2024-03-17T00:30:56;0.40;;;0.40;;
32333;SDS011;18810;53.040;8.850;2024-03-17T00:33:22;0.40;;;0.40;;
32333;SDS011;18810;53.040;8.850;2024-03-17T00:35:49;0.35;;;0.35;;
32333;SDS011;18810;53.040;8.850;2024-03-17T00:38:15;0.30;;;0.30;;
32333;SDS011;18810;53.040;8.850;2024-03-17T00:40:41;0.40;;;0.40;;
32333;SDS011;18810;53.040;8.850;2024-03-17T00:43:06;0.30;;;0.30;;
32333;SDS011;18810;53.040;8.850;2024-03-17T00:45:33;0.30;;;0.30;;
32333;SDS011;18810;53.040;8.850;2024-03-17T00:47:59;0.30;;;0.30;;
32333;SDS011;18810;53.040;8.850;2024-03-17T00:50:25;0.30;;;0.30;;
32333;SDS011;18810;53.040;8.850;2024-03-17T00:52:51;0.35;;;0.35;;
32333;SDS011;18810;53.040;8.850;2024-03-17T00:55:16;0.30;;;0.30;;
32333;SDS011;18810;53.040;8.850;2024-03-17T00:57:42;0.30;;;0.30;;
32333;SDS011;18810;53.040;8.850;2024-03-17T01:00:09;0.30;;;0.30;;
32333;SDS011;18810;53.040;8.850;2024-03-17T01:02:36;0.30;;;0.30;;
32333;SDS011;18810;53.040;8.850;2024-03-17T01:05:02;0.40;;;0.40;;
32333;SDS011;18810;53.040;8.850;2024-03-17T01:07:30;0.30;;;0.30;;
32333;SDS011;18810;53.040;8.850;2024-03-17T01:09:57;0.30;;;0.30;;
32333;SDS011;18810;53.040;8.850;2024-03-17T01:12:23;0.30;;;0.30;;
32333;SDS011;18810;53.040;8.850;2024-03-17T01:14:48;0.30;;;0.30;;
32333;SDS011;18810;53.040;8.850;2024-03-17T01:17:15;0.30;;;0.30;;
32333;SDS011;18810;53.040;8.850;2024-03-17T01:19:41;0.30;;;0.30;;
32333;SDS011;18810;53.040;8.850;2024-03-17T01:22:07;0.40;;;0.40;;
32333;SDS011;18810;53.040;8.850;2024-03-17T01:24:33;0.30;;;0.30;;
32333;SDS011;18810;53.040;8.850;2024-03-17T01:26:59;0.38;;;0.38;;
32333;SDS011;18810;53.040;8.850;2024-03-17T01:29:26;0.30;;;0.30;;
32333;SDS011;18810;53.040;8.850;2024-03-17T01:31:52;0.40;;;0.40;;
32333;SDS011;18810;53.040;8.850;2024-03-17T01:34:18;0.40;;;0.40;;
32333;SDS011;18810;53.040;8.850;2024-03-17T01:36:44;0.30;;;0.30;;
32333;SDS011;18810;53.040;8.850;2024-03-17T01:39:10;0.30;;;0.30;;
32333;SDS011;18810;53.040;8.850;2024-03-17T01:41:37;0.40;;;0.40;;
32333;SDS011;18810;53.040;8.850;2024-03-17T01:44:03;0.38;;;0.38;;
32333;SDS011;18810;53.040;8.850;2024-03-17T01:46:28;0.40;;;0.40;;
32333;SDS011;18810;53.040;8.850;2024-03-17T01:48:54;0.38;;;0.38;;
32333;SDS011;18810;53.040;8.850;2024-03-17T01:51:20;0.30;;;0.30;;
32333;SDS011;18810;53.040;8.850;2024-03-17T01:53:47;0.32;;;0.32;;
32333;SDS011;18810;53.040;8.850;2024-03-17T01:56:14;0.30;;;0.30;;
32333;SDS011;18810;53.040;8.850;2024-03-17T01:58:44;0.30;;;0.30;;
32333;SDS011;18810;53.040;8.850;2024-03-17T02:01:10;0.30;;;0.30;;
32333;SDS011;18810;53.040;8.850;2024-03-17T02:03:39;0.30;;;0.30;;
32333;SDS011;18810;53.040;8.850;2024-03-17T02:06:07;0.40;;;0.40;;
32333;SDS011;18810;53.040;8.850;2024-03-17T02:08:47;0.30;;;0.30;;
32333;SDS011;18810;53.040;8.850;2024-03-17T02:13:52;0.30;;;0.30;;
32333;SDS011;18810;53.040;8.850;2024-03-17T02:16:18;0.30;;;0.30;;
32333;SDS011;18810;53.040;8.850;2024-03-17T02:18:45;0.32;;;0.32;;
32333;SDS011;18810;53.040;8.850;2024-03-17T02:21:14;0.30;;;0.30;;
32333;SDS011;18810;53.040;8.850;2024-03-17T02:23:44;0.30;;;0.30;;
32333;SDS011;18810;53.040;8.850;2024-03-17T02:26:10;0.30;;;0.30;;
32333;SDS011;18810;53.040;8.850;2024-03-17T02:28:42;0.30;;;0.30;;
32333;SDS011;18810;53.040;8.850;2024-03-17T02:31:10;0.30;;;0.30;;
32333;SDS011;18810;53.040;8.850;2024-03-17T02:33:37;0.38;;;0.38;;
32333;SDS011;18810;53.040;8.850;2024-03-17T02:36:06;0.30;;;0.30;;
32333;SDS011;18810;53.040;8.850;2024-03-17T02:38:35;0.30;;;0.30;;
32333;SDS011;18810;53.040;8.850;2024-03-17T02:41:20;0.30;;;0.30;;
32333;SDS011;18810;53.040;8.850;2024-03-17T02:43:46;0.40;;;0.40;;
32333;SDS011;18810;53.040;8.850;2024-03-17T02:46:13;0.40;;;0.40;;
32333;SDS011;18810;53.040;8.850;2024-03-17T02:48:39;0.40;;;0.40;;
32333;SDS011;18810;53.040;8.850;2024-03-17T02:51:15;0.30;;;0.30;;
32333;SDS011;18810;53.040;8.850;2024-03-17T02:53:46;0.30;;;0.30;;
32333;SDS011;18810;53.040;8.850;2024-03-17T02:56:14;0.30;;;0.30;;
32333;SDS011;18810;53.040;8.850;2024-03-17T02:58:41;0.40;;;0.40;;
32333;SDS011;18810;53.040;8.850;2024-03-17T03:01:07;0.30;;;0.30;;
32333;SDS011;18810;53.040;8.850;2024-03-17T03:03:35;0.40;;;0.40;;
32333;SDS011;18810;53.040;8.850;2024-03-17T03:06:01;0.30;;;0.30;;
32333;SDS011;18810;53.040;8.850;2024-03-17T03:08:34;0.40;;;0.40;;
32333;SDS011;18810;53.040;8.850;2024-03-17T03:11:02;0.40;;;0.40;;
32333;SDS011;18810;53.040;8.850;2024-03-17T03:13:29;0.30;;;0.30;;
32333;SDS011;18810;53.040;8.850;2024-03-17T03:15:55;0.40;;;0.40;;
32333;SDS011;18810;53.040;8.850;2024-03-17T03:18:21;0.40;;;0.40;;
32333;SDS011;18810;53.040;8.850;2024-03-17T03:20:50;0.30;;;0.30;;
32333;SDS011;18810;53.040;8.850;2024-03-17T03:23:19;0.40;;;0.40;;
32333;SDS011;18810;53.040;8.850;2024-03-17T03:25:45;0.40;;;0.40;;
32333;SDS011;18810;53.040;8.850;2024-03-17T03:30:41;0.30;;;0.30;;
32333;SDS011;18810;53.040;8.850;2024-03-17T03:33:06;0.30;;;0.30;;
32333;SDS011;18810;53.040;8.850;2024-03-17T03:35:32;0.30;;;0.30;;
32333;SDS011;18810;53.040;8.850;2024-03-17T03:37:58;0.40;;;0.40;;
32333;SDS011;18810;53.040;8.850;2024-03-17T03:40:25;0.40;;;0.40;;
32333;SDS011;18810;53.040;8.850;2024-03-17T03:42:52;0.40;;;0.40;;
32333;SDS011;18810;53.040;8.850;2024-03-17T03:45:18;0.30;;;0.30;;
32333;SDS011;18810;53.040;8.850;2024-03-17T03:47:45;0.30;;;0.30;;
32333;SDS011;18810;53.040;8.850;2024-03-17T03:50:11;0.38;;;0.38;;
32333;SDS011;18810;53.040;8.850;2024-03-17T03:52:40;0.30;;;0.30;;
32333;SDS011;18810;53.040;8.850;2024-03-17T03:55:07;0.40;;;0.40;;
32333;SDS011;18810;53.040;8.850;2024-03-17T03:57:40;0.30;;;0.30;;
32333;SDS011;18810;53.040;8.850;2024-03-17T04:00:07;0.30;;;0.30;;
32333;SDS011;18810;53.040;8.850;2024-03-17T04:02:39;0.40;;;0.40;;
32333;SDS011;18810;53.040;8.850;2024-03-17T04:05:05;0.40;;;0.40;;
32333;SDS011;18810;53.040;8.850;2024-03-17T04:07:31;0.32;;;0.32;;
32333;SDS011;18810;53.040;8.850;2024-03-17T04:09:57;0.40;;;0.40;;
32333;SDS011;18810;53.040;8.850;2024-03-17T04:12:24;0.30;;;0.30;;
32333;SDS011;18810;53.040;8.850;2024-03-17T04:14:50;0.30;;;0.30;;
32333;SDS011;18810;53.040;8.850;2024-03-17T04:17:18;0.30;;;0.30;;
32333;SDS011;18810;53.040;8.850;2024-03-17T04:19:46;0.30;;;0.30;;
32333;SDS011;18810;53.040;8.850;2024-03-17T04:22:13;0.40;;;0.40;;
32333;SDS011;18810;53.040;8.850;2024-03-17T04:24:40;0.38;;;0.38;;
32333;SDS011;18810;53.040;8.850;2024-03-17T04:27:06;0.40;;;0.40;;
32333;SDS011;18810;53.040;8.850;2024-03-17T04:29:32;0.40;;;0.40;;
32333;SDS011;18810;53.040;8.850;2024-03-17T04:31:58;0.30;;;0.30;;
32333;SDS011;18810;53.040;8.850;2024-03-17T04:34:26;0.30;;;0.30;;
32333;SDS011;18810;53.040;8.850;2024-03-17T04:36:52;0.30;;;0.30;;
32333;SDS011;18810;53.040;8.850;2024-03-17T04:39:18;0.30;;;0.30;;
32333;SDS011;18810;53.040;8.850;2024-03-17T04:41:45;0.30;;;0.30;;
32333;SDS011;18810;53.040;8.850;2024-03-17T04:44:11;0.30;;;0.30;;
32333;SDS011;18810;53.040;8.850;2024-03-17T04:46:37;0.30;;;0.30;;
32333;SDS011;18810;53.040;8.850;2024-03-17T04:49:03;0.32;;;0.32;;
32333;SDS011;18810;53.040;8.850;2024-03-17T04:51:29;0.40;;;0.40;;
32333;SDS011;18810;53.040;8.850;2024-03-17T04:53:56;0.40;;;0.40;;
32333;SDS011;18810;53.040;8.850;2024-03-17T04:56:22;0.40;;;0.40;;
32333;SDS011;18810;53.040;8.850;2024-03-17T04:58:48;0.32;;;0.32;;
32333;SDS011;18810;53.040;8.850;2024-03-17T05:01:14;0.40;;;0.40;;
32333;SDS011;18810;53.040;8.850;2024-03-17T05:03:40;0.40;;;0.40;;
32333;SDS011;18810;53.040;8.850;2024-03-17T05:06:06;0.30;;;0.30;;
32333;SDS011;18810;53.040;8.850;2024-03-17T05:08:32;0.30;;;0.30;;
32333;SDS011;18810;53.040;8.850;2024-03-17T05:11:00;0.40;;;0.40;;
32333;SDS011;18810;53.040;8.850;2024-03-17T05:13:30;0.40;;;0.40;;
32333;SDS011;18810;53.040;8.850;2024-03-17T05:16:00;0.30;;;0.30;;
32333;SDS011;18810;53.040;8.850;2024-03-17T05:18:28;0.30;;;0.30;;
32333;SDS011;18810;53.040;8.850;2024-03-17T05:20:58;0.30;;;0.30;;
32333;SDS011;18810;53.040;8.850;2024-03-17T05:23:29;0.40;;;0.40;;
32333;SDS011;18810;53.040;8.850;2024-03-17T05:25:56;0.40;;;0.40;;
32333;SDS011;18810;53.040;8.850;2024-03-17T05:28:23;0.40;;;0.40;;
32333;SDS011;18810;53.040;8.850;2024-03-17T05:30:49;0.30;;;0.30;;
32333;SDS011;18810;53.040;8.850;2024-03-17T05:33:18;0.30;;;0.30;;
32333;SDS011;18810;53.040;8.850;2024-03-17T05:35:59;0.30;;;0.30;;
32333;SDS011;18810;53.040;8.850;2024-03-17T05:38:27;0.30;;;0.30;;
32333;SDS011;18810;53.040;8.850;2024-03-17T05:43:21;0.40;;;0.40;;
32333;SDS011;18810;53.040;8.850;2024-03-17T05:45:49;0.30;;;0.30;;
32333;SDS011;18810;53.040;8.850;2024-03-17T05:48:16;0.30;;;0.30;;
32333;SDS011;18810;53.040;8.850;2024-03-17T05:50:42;0.30;;;0.30;;
32333;SDS011;18810;53.040;8.850;2024-03-17T05:53:08;0.30;;;0.30;;
32333;SDS011;18810;53.040;8.850;2024-03-17T05:55:35;0.30;;;0.30;;
32333;SDS011;18810;53.040;8.850;2024-03-17T05:58:01;0.30;;;0.30;;
32333;SDS011;18810;53.040;8.850;2024-03-17T06:00:27;0.38;;;0.38;;
32333;SDS011;18810;53.040;8.850;2024-03-17T06:02:53;0.30;;;0.30;;
32333;SDS011;18810;53.040;8.850;2024-03-17T06:05:19;0.30;;;0.30;;
32333;SDS011;18810;53.040;8.850;2024-03-17T06:07:45;0.40;;;0.40;;
32333;SDS011;18810;53.040;8.850;2024-03-17T06:10:12;0.30;;;0.30;;
32333;SDS011;18810;53.040;8.850;2024-03-17T06:12:38;0.30;;;0.30;;
32333;SDS011;18810;53.040;8.850;2024-03-17T06:15:03;0.32;;;0.32;;
32333;SDS011;18810;53.040;8.850;2024-03-17T06:17:29;0.30;;;0.30;;
32333;SDS011;18810;53.040;8.850;2024-03-17T06:19:55;0.30;;;0.30;;
32333;SDS011;18810;53.040;8.850;2024-03-17T06:22:22;0.30;;;0.30;;
32333;SDS011;18810;53.040;8.850;2024-03-17T06:24:48;0.30;;;0.30;;
32333;SDS011;18810;53.040;8.850;2024-03-17T06:27:15;0.30;;;0.30;;
32333;SDS011;18810;53.040;8.850;2024-03-17T06:29:41;0.30;;;0.30;;
32333;SDS011;18810;53.040;8.850;2024-03-17T06:32:08;0.30;;;0.30;;
32333;SDS011;18810;53.040;8.850;2024-03-17T06:34:33;0.40;;;0.40;;
32333;SDS011;18810;53.040;8.850;2024-03-17T06:36:59;0.30;;;0.30;;
32333;SDS011;18810;53.040;8.850;2024-03-17T06:39:25;0.30;;;0.30;;
32333;SDS011;18810;53.040;8.850;2024-03-17T06:41:51;0.40;;;0.40;;
32333;SDS011;18810;53.040;8.850;2024-03-17T06:44:17;0.30;;;0.30;;
32333;SDS011;18810;53.040;8.850;2024-03-17T06:46:44;0.30;;;0.30;;
32333;SDS011;18810;53.040;8.850;2024-03-17T06:49:12;0.40;;;0.40;;
32333;SDS011;18810;53.040;8.850;2024-03-17T06:51:38;0.30;;;0.30;;
32333;SDS011;18810;53.040;8.850;2024-03-17T06:54:04;0.30;;;0.30;;
32333;SDS011;18810;53.040;8.850;2024-03-17T06:56:30;0.40;;;0.40;;
32333;SDS011;18810;53.040;8.850;2024-03-17T06:58:57;0.38;;;0.38;;
32333;SDS011;18810;53.040;8.850;2024-03-17T07:01:23;0.30;;;0.30;;
32333;SDS011;18810;53.040;8.850;2024-03-17T07:03:49;0.30;;;0.30;;
32333;SDS011;18810;53.040;8.850;2024-03-17T07:06:15;0.30;;;0.30;;
32333;SDS011;18810;53.040;8.850;2024-03-17T07:08:41;0.30;;;0.30;;
32333;SDS011;18810;53.040;8.850;2024-03-17T07:11:07;0.30;;;0.30;;
32333;SDS011;18810;53.040;8.850;2024-03-17T07:13:35;0.30;;;0.30;;
32333;SDS011;18810;53.040;8.850;2024-03-17T07:16:02;0.30;;;0.30;;
32333;SDS011;18810;53.040;8.850;2024-03-17T07:18:31;0.30;;;0.30;;
32333;SDS011;18810;53.040;8.850;2024-03-17T07:20:58;0.30;;;0.30;;
32333;SDS011;18810;53.040;8.850;2024-03-17T07:23:24;0.30;;;0.30;;
32333;SDS011;18810;53.040;8.850;2024-03-17T07:25:51;0.30;;;0.30;;
32333;SDS011;18810;53.040;8.850;2024-03-17T07:28:24;0.30;;;0.30;;
32333;SDS011;18810;53.040;8.850;2024-03-17T07:30:56;0.30;;;0.30;;
32333;SDS011;18810;53.040;8.850;2024-03-17T07:33:23;0.30;;;0.30;;
32333;SDS011;18810;53.040;8.850;2024-03-17T07:35:50;0.28;;;0.28;;
32333;SDS011;18810;53.040;8.850;2024-03-17T07:38:16;0.30;;;0.30;;
32333;SDS011;18810;53.040;8.850;2024-03-17T07:40:43;0.28;;;0.28;;
32333;SDS011;18810;53.040;8.850;2024-03-17T07:43:10;0.30;;;0.30;;
32333;SDS011;18810;53.040;8.850;2024-03-17T07:45:37;0.30;;;0.30;;
32333;SDS011;18810;53.040;8.850;2024-03-17T07:48:03;0.20;;;0.20;;
32333;SDS011;18810;53.040;8.850;2024-03-17T07:50:28;0.30;;;0.30;;
32333;SDS011;18810;53.040;8.850;2024-03-17T07:52:55;0.20;;;0.20;;
32333;SDS011;18810;53.040;8.850;2024-03-17T07:55:21;0.20;;;0.20;;
32333;SDS011;18810;53.040;8.850;2024-03-17T07:57:47;0.20;;;0.20;;
32333;SDS011;18810;53.040;8.850;2024-03-17T08:00:13;0.30;;;0.30;;
32333;SDS011;18810;53.040;8.850;2024-03-17T08:02:44;0.20;;;0.20;;
32333;SDS011;18810;53.040;8.850;2024-03-17T08:05:13;0.20;;;0.20;;
32333;SDS011;18810;53.040;8.850;2024-03-17T08:07:39;0.20;;;0.20;;
32333;SDS011;18810;53.040;8.850;2024-03-17T08:10:07;0.25;;;0.25;;
32333;SDS011;18810;53.040;8.850;2024-03-17T08:12:33;0.30;;;0.30;;
32333;SDS011;18810;53.040;8.850;2024-03-17T08:14:59;0.20;;;0.20;;
32333;SDS011;18810;53.040;8.850;2024-03-17T08:17:25;0.30;;;0.30;;
32333;SDS011;18810;53.040;8.850;2024-03-17T08:19:51;0.20;;;0.20;;
32333;SDS011;18810;53.040;8.850;2024-03-17T08:22:18;0.30;;;0.30;;
32333;SDS011;18810;53.040;8.850;2024-03-17T08:24:44;0.20;;;0.20;;
32333;SDS011;18810;53.040;8.850;2024-03-17T08:27:09;0.20;;;0.20;;
32333;SDS011;18810;53.040;8.850;2024-03-17T08:29:36;0.20;;;0.20;;
32333;SDS011;18810;53.040;8.850;2024-03-17T08:32:01;0.20;;;0.20;;
32333;SDS011;18810;53.040;8.850;2024-03-17T08:34:28;0.20;;;0.20;;
32333;SDS011;18810;53.040;8.850;2024-03-17T08:36:54;0.20;;;0.20;;
32333;SDS011;18810;53.040;8.850;2024-03-17T08:39:21;0.20;;;0.20;;
32333;SDS011;18810;53.040;8.850;2024-03-17T08:41:48;0.20;;;0.20;;
32333;SDS011;18810;53.040;8.850;2024-03-17T08:44:14;0.20;;;0.20;;
32333;SDS011;18810;53.040;8.850;2024-03-17T08:46:40;0.28;;;0.28;;
32333;SDS011;18810;53.040;8.850;2024-03-17T08:49:06;0.20;;;0.20;;
32333;SDS011;18810;53.040;8.850;2024-03-17T08:51:32;0.20;;;0.20;;
32333;SDS011;18810;53.040;8.850;2024-03-17T08:53:58;0.20;;;0.20;;
32333;SDS011;18810;53.040;8.850;2024-03-17T08:56:24;0.20;;;0.20;;
32333;SDS011;18810;53.040;8.850;2024-03-17T08:58:50;0.20;;;0.20;;
32333;SDS011;18810;53.040;8.850;2024-03-17T09:01:16;0.20;;;0.20;;
32333;SDS011;18810;53.040;8.850;2024-03-17T09:03:42;0.20;;;0.20;;
32333;SDS011;18810;53.040;8.850;2024-03-17T09:06:15;0.20;;;0.20;;
32333;SDS011;18810;53.040;8.850;2024-03-17T09:08:41;0.20;;;0.20;;
32333;SDS011;18810;53.040;8.850;2024-03-17T09:11:11;0.20;;;0.20;;
32333;SDS011;18810;53.040;8.850;2024-03-17T09:13:38;0.28;;;0.28;;
32333;SDS011;18810;53.040;8.850;2024-03-17T09:16:03;0.20;;;0.20;;
32333;SDS011;18810;53.040;8.850;2024-03-17T09:18:30;0.20;;;0.20;;
32333;SDS011;18810;53.040;8.850;2024-03-17T09:21:01;0.30;;;0.30;;
32333;SDS011;18810;53.040;8.850;2024-03-17T09:23:28;0.30;;;0.30;;
32333;SDS011;18810;53.040;8.850;2024-03-17T09:25:58;0.20;;;0.20;;
32333;SDS011;18810;53.040;8.850;2024-03-17T09:28:26;0.20;;;0.20;;
32333;SDS011;18810;53.040;8.850;2024-03-17T09:30:52;0.20;;;0.20;;
32333;SDS011;18810;53.040;8.850;2024-03-17T09:33:20;0.20;;;0.20;;
32333;SDS011;18810;53.040;8.850;2024-03-17T09:35:56;0.30;;;0.30;;
32333;SDS011;18810;53.040;8.850;2024-03-17T09:38:23;0.20;;;0.20;;
32333;SDS011;18810;53.040;8.850;2024-03-17T09:40:49;0.20;;;0.20;;
32333;SDS011;18810;53.040;8.850;2024-03-17T09:43:18;0.20;;;0.20;;
32333;SDS011;18810;53.040;8.850;2024-03-17T09:45:45;0.22;;;0.22;;
32333;SDS011;18810;53.040;8.850;2024-03-17T09:48:13;0.20;;;0.20;;
32333;SDS011;18810;53.040;8.850;2024-03-17T09:50:41;0.20;;;0.20;;
32333;SDS011;18810;53.040;8.850;2024-03-17T09:53:06;0.20;;;0.20;;
32333;SDS011;18810;53.040;8.850;2024-03-17T09:55:40;0.20;;;0.20;;
32333;SDS011;18810;53.040;8.850;2024-03-17T09:58:09;0.20;;;0.20;;
32333;SDS011;18810;53.040;8.850;2024-03-17T10:00:42;0.20;;;0.20;;
32333;SDS011;18810;53.040;8.850;2024-03-17T10:03:09;0.20;;;0.20;;
32333;SDS011;18810;53.040;8.850;2024-03-17T10:05:34;0.20;;;0.20;;
32333;SDS011;18810;53.040;8.850;2024-03-17T10:08:01;0.20;;;0.20;;
32333;SDS011;18810;53.040;8.850;2024-03-17T10:10:27;0.20;;;0.20;;
32333;SDS011;18810;53.040;8.850;2024-03-17T10:12:53;0.20;;;0.20;;
32333;SDS011;18810;53.040;8.850;2024-03-17T10:15:19;0.20;;;0.20;;
32333;SDS011;18810;53.040;8.850;2024-03-17T10:17:49;0.20;;;0.20;;
32333;SDS011;18810;53.040;8.850;2024-03-17T10:23:02;0.20;;;0.20;;
32333;SDS011;18810;53.040;8.850;2024-03-17T10:25:32;0.30;;;0.30;;
32333;SDS011;18810;53.040;8.850;2024-03-17T10:27:59;0.20;;;0.20;;
32333;SDS011;18810;53.040;8.850;2024-03-17T10:30:26;0.20;;;0.20;;
32333;SDS011;18810;53.040;8.850;2024-03-17T10:32:55;0.20;;;0.20;;
32333;SDS011;18810;53.040;8.850;2024-03-17T10:35:26;0.20;;;0.20;;
32333;SDS011;18810;53.040;8.850;2024-03-17T10:40:28;0.20;;;0.20;;
32333;SDS011;18810;53.040;8.850;2024-03-17T10:42:55;0.20;;;0.20;;
32333;SDS011;18810;53.040;8.850;2024-03-17T10:45:22;0.20;;;0.20;;
32333;SDS011;18810;53.040;8.850;2024-03-17T10:47:49;0.20;;;0.20;;
32333;SDS011;18810;53.040;8.850;2024-03-17T10:50:17;0.20;;;0.20;;
32333;SDS011;18810;53.040;8.850;2024-03-17T10:52:44;0.20;;;0.20;;
32333;SDS011;18810;53.040;8.850;2024-03-17T10:55:13;0.20;;;0.20;;
32333;SDS011;18810;53.040;8.850;2024-03-17T10:57:47;0.20;;;0.20;;
32333;SDS011;18810;53.040;8.850;2024-03-17T11:00:13;0.20;;;0.20;;
32333;SDS011;18810;53.040;8.850;2024-03-17T11:02:43;0.20;;;0.20;;
32333;SDS011;18810;53.040;8.850;2024-03-17T11:05:29;0.20;;;0.20;;
32333;SDS011;18810;53.040;8.850;2024-03-17T11:07:57;0.20;;;0.20;;
32333;SDS011;18810;53.040;8.850;2024-03-17T11:10:30;0.10;;;0.10;;
32333;SDS011;18810;53.040;8.850;2024-03-17T11:13:02;0.20;;;0.20;;
32333;SDS011;18810;53.040;8.850;2024-03-17T11:17:55;0.20;;;0.20;;
32333;SDS011;18810;53.040;8.850;2024-03-17T11:20:37;0.20;;;0.20;;
32333;SDS011;18810;53.040;8.850;2024-03-17T11:23:04;0.20;;;0.20;;
32333;SDS011;18810;53.040;8.850;2024-03-17T11:25:39;0.20;;;0.20;;
32333;SDS011;18810;53.040;8.850;2024-03-17T11:28:09;0.20;;;0.20;;
32333;SDS011;18810;53.040;8.850;2024-03-17T11:30:56;0.20;;;0.20;;
32333;SDS011;18810;53.040;8.850;2024-03-17T11:38:51;0.20;;;0.20;;
32333;SDS011;18810;53.040;8.850;2024-03-17T11:46:38;0.20;;;0.20;;
32333;SDS011;18810;53.040;8.850;2024-03-17T11:49:05;0.20;;;0.20;;
32333;SDS011;18810;53.040;8.850;2024-03-17T11:51:33;0.20;;;0.20;;
32333;SDS011;18810;53.040;8.850;2024-03-17T11:54:00;0.20;;;0.20;;
32333;SDS011;18810;53.040;8.850;2024-03-17T11:56:26;0.20;;;0.20;;
32333;SDS011;18810;53.040;8.850;2024-03-17T11:59:04;0.20;;;0.20;;
32333;SDS011;18810;53.040;8.850;2024-03-17T12:01:31;0.20;;;0.20;;
32333;SDS011;18810;53.040;8.850;2024-03-17T12:03:57;0.20;;;0.20;;
32333;SDS011;18810;53.040;8.850;2024-03-17T12:06:29;0.20;;;0.20;;
32333;SDS011;18810;53.040;8.850;2024-03-17T12:09:01;0.20;;;0.20;;
32333;SDS011;18810;53.040;8.850;2024-03-17T12:11:35;0.20;;;0.20;;
32333;SDS011;18810;53.040;8.850;2024-03-17T12:14:09;0.20;;;0.20;;
32333;SDS011;18810;53.040;8.850;2024-03-17T12:16:46;0.20;;;0.20;;
32333;SDS011;18810;53.040;8.850;2024-03-17T12:19:13;0.20;;;0.20;;
32333;SDS011;18810;53.040;8.850;2024-03-17T12:21:43;0.20;;;0.20;;
32333;SDS011;18810;53.040;8.850;2024-03-17T12:24:17;0.20;;;0.20;;
32333;SDS011;18810;53.040;8.850;2024-03-17T12:26:50;0.20;;;0.20;;
32333;SDS011;18810;53.040;8.850;2024-03-17T12:29:30;0.20;;;0.20;;
32333;SDS011;18810;53.040;8.850;2024-03-17T12:32:06;0.20;;;0.20;;
32333;SDS011;18810;53.040;8.850;2024-03-17T12:34:41;0.20;;;0.20;;
32333;SDS011;18810;53.040;8.850;2024-03-17T12:37:29;0.20;;;0.20;;
32333;SDS011;18810;53.040;8.850;2024-03-17T12:39:59;0.20;;;0.20;;
32333;SDS011;18810;53.040;8.850;2024-03-17T12:42:25;0.20;;;0.20;;
32333;SDS011;18810;53.040;8.850;2024-03-17T12:47:19;0.20;;;0.20;;
32333;SDS011;18810;53.040;8.850;2024-03-17T12:49:49;0.20;;;0.20;;
32333;SDS011;18810;53.040;8.850;2024-03-17T12:52:20;0.20;;;0.20;;
32333;SDS011;18810;53.040;8.850;2024-03-17T12:57:42;0.20;;;0.20;;
32333;SDS011;18810;53.040;8.850;2024-03-17T13:00:30;0.13;;;0.13;;
32333;SDS011;18810;53.040;8.850;2024-03-17T13:02:56;0.20;;;0.20;;
32333;SDS011;18810;53.040;8.850;2024-03-17T13:05:22;0.20;;;0.20;;
32333;SDS011;18810;53.040;8.850;2024-03-17T13:07:48;0.20;;;0.20;;
32333;SDS011;18810;53.040;8.850;2024-03-17T13:10:18;0.20;;;0.20;;
32333;SDS011;18810;53.040;8.850;2024-03-17T13:12:45;0.13;;;0.13;;
32333;SDS011;18810;53.040;8.850;2024-03-17T13:15:12;0.10;;;0.10;;
32333;SDS011;18810;53.040;8.850;2024-03-17T13:17:40;0.20;;;0.20;;
32333;SDS011;18810;53.040;8.850;2024-03-17T13:20:13;0.20;;;0.20;;
32333;SDS011;18810;53.040;8.850;2024-03-17T13:22:40;0.10;;;0.10;;
32333;SDS011;18810;53.040;8.850;2024-03-17T13:25:16;0.20;;;0.20;;
32333;SDS011;18810;53.040;8.850;2024-03-17T13:27:44;0.20;;;0.20;;
32333;SDS011;18810;53.040;8.850;2024-03-17T13:30:13;0.20;;;0.20;;
32333;SDS011;18810;53.040;8.850;2024-03-17T13:32:40;0.20;;;0.20;;
32333;SDS011;18810;53.040;8.850;2024-03-17T13:35:17;0.20;;;0.20;;
32333;SDS011;18810;53.040;8.850;2024-03-17T13:37:44;0.20;;;0.20;;
32333;SDS011;18810;53.040;8.850;2024-03-17T13:40:11;0.20;;;0.20;;
32333;SDS011;18810;53.040;8.850;2024-03-17T13:42:39;0.20;;;0.20;;
32333;SDS011;18810;53.040;8.850;2024-03-17T13:45:05;0.20;;;0.20;;
32333;SDS011;18810;53.040;8.850;2024-03-17T13:47:36;0.20;;;0.20;;
32333;SDS011;18810;53.040;8.850;2024-03-17T13:50:02;0.20;;;0.20;;
32333;SDS011;18810;53.040;8.850;2024-03-17T13:52:31;0.20;;;0.20;;
32333;SDS011;18810;53.040;8.850;2024-03-17T13:54:58;0.20;;;0.20;;
32333;SDS011;18810;53.040;8.850;2024-03-17T13:57:24;0.20;;;0.20;;
32333;SDS011;18810;53.040;8.850;2024-03-17T13:59:50;0.20;;;0.20;;
32333;SDS011;18810;53.040;8.850;2024-03-17T14:02:17;0.20;;;0.20;;
32333;SDS011;18810;53.040;8.850;2024-03-17T14:04:43;0.20;;;0.20;;
32333;SDS011;18810;53.040;8.850;2024-03-17T14:07:11;0.20;;;0.20;;
32333;SDS011;18810;53.040;8.850;2024-03-17T14:09:37;0.17;;;0.17;;
32333;SDS011;18810;53.040;8.850;2024-03-17T14:12:02;0.20;;;0.20;;
32333;SDS011;18810;53.040;8.850;2024-03-17T14:14:28;0.20;;;0.20;;
32333;SDS011;18810;53.040;8.850;2024-03-17T14:16:54;0.20;;;0.20;;
32333;SDS011;18810;53.040;8.850;2024-03-17T14:19:20;0.20;;;0.20;;
32333;SDS011;18810;53.040;8.850;2024-03-17T14:21:46;0.20;;;0.20;;
32333;SDS011;18810;53.040;8.850;2024-03-17T14:24:12;0.20;;;0.20;;
32333;SDS011;18810;53.040;8.850;2024-03-17T14:26:38;0.20;;;0.20;;
32333;SDS011;18810;53.040;8.850;2024-03-17T14:29:04;0.20;;;0.20;;
32333;SDS011;18810;53.040;8.850;2024-03-17T14:31:33;0.20;;;0.20;;
32333;SDS011;18810;53.040;8.850;2024-03-17T14:36:31;0.20;;;0.20;;
32333;SDS011;18810;53.040;8.850;2024-03-17T14:38:58;0.20;;;0.20;;
32333;SDS011;18810;53.040;8.850;2024-03-17T14:41:24;0.20;;;0.20;;
32333;SDS011;18810;53.040;8.850;2024-03-17T14:43:50;0.20;;;0.20;;
32333;SDS011;18810;53.040;8.850;2024-03-17T14:46:16;0.20;;;0.20;;
32333;SDS011;18810;53.040;8.850;2024-03-17T14:48:43;0.20;;;0.20;;
32333;SDS011;18810;53.040;8.850;2024-03-17T14:51:09;0.13;;;0.13;;
32333;SDS011;18810;53.040;8.850;2024-03-17T14:53:36;0.10;;;0.10;;
32333;SDS011;18810;53.040;8.850;2024-03-17T14:58:33;0.20;;;0.20;;
32333;SDS011;18810;53.040;8.850;2024-03-17T15:00:59;0.20;;;0.20;;
32333;SDS011;18810;53.040;8.850;2024-03-17T15:03:25;0.20;;;0.20;;
32333;SDS011;18810;53.040;8.850;2024-03-17T15:05:52;0.20;;;0.20;;
32333;SDS011;18810;53.040;8.850;2024-03-17T15:08:19;0.20;;;0.20;;
32333;SDS011;18810;53.040;8.850;2024-03-17T15:10:44;0.20;;;0.20;;
32333;SDS011;18810;53.040;8.850;2024-03-17T15:13:10;0.20;;;0.20;;
32333;SDS011;18810;53.040;8.850;2024-03-17T15:15:39;0.20;;;0.20;;
32333;SDS011;18810;53.040;8.850;2024-03-17T15:18:06;0.13;;;0.13;;
32333;SDS011;18810;53.040;8.850;2024-03-17T15:20:33;0.20;;;0.20;;
32333;SDS011;18810;53.040;8.850;2024-03-17T15:23:00;0.20;;;0.20;;
32333;SDS011;18810;53.040;8.850;2024-03-17T15:25:26;0.20;;;0.20;;
32333;SDS011;18810;53.040;8.850;2024-03-17T15:27:52;0.20;;;0.20;;